createdAt,value
2018-05-07T00:02:20.999Z,8.60
2018-05-07T00:04:48.588Z,8.60
2018-05-07T00:07:16.212Z,8.60
2018-05-07T00:09:43.827Z,8.50
2018-05-07T00:12:11.410Z,8.40
2018-05-07T00:14:39.030Z,8.50
2018-05-07T00:17:07.413Z,8.70
2018-05-07T00:19:35.759Z,8.70
2018-05-07T00:22:03.391Z,8.70
2018-05-07T00:24:30.980Z,8.80
2018-05-07T00:26:58.574Z,8.70
2018-05-07T00:29:26.184Z,8.60
2018-05-07T00:31:53.806Z,8.70
2018-05-07T00:34:21.672Z,8.60
2018-05-07T00:36:49.266Z,8.40
2018-05-07T00:39:17.618Z,8.30
2018-05-07T00:41:45.227Z,8.20
2018-05-07T00:44:13.574Z,8.20
2018-05-07T00:46:41.153Z,8.10
2018-05-07T00:49:08.772Z,8.20
2018-05-07T00:51:36.349Z,8.30
2018-05-07T00:54:03.960Z,8.30
2018-05-07T00:56:32.328Z,8.40
2018-05-07T00:58:59.937Z,8.40
2018-05-07T01:01:27.549Z,8.40
2018-05-07T01:03:55.154Z,8.30
2018-05-07T01:06:22.732Z,8.30
2018-05-07T01:08:51.101Z,8.40
2018-05-07T01:11:18.698Z,8.30
2018-05-07T01:13:46.307Z,8.30
2018-05-07T01:16:13.915Z,8.30
2018-05-07T01:18:41.558Z,8.30
2018-05-07T01:21:09.915Z,8.20
2018-05-07T01:23:37.548Z,8.20
2018-05-07T01:26:05.166Z,8.10
2018-05-07T01:28:33.508Z,8.00
2018-05-07T01:31:01.121Z,8.00
2018-05-07T01:33:29.466Z,8.00
2018-05-07T01:35:57.094Z,8.00
2018-05-07T01:38:24.671Z,8.00
2018-05-07T01:40:52.288Z,8.10
2018-05-07T01:43:19.867Z,8.00
2018-05-07T01:45:48.207Z,8.00
2018-05-07T01:48:16.585Z,7.90
2018-05-07T01:50:44.204Z,7.90
2018-05-07T01:53:12.547Z,7.90
2018-05-07T01:55:40.160Z,7.90
2018-05-07T01:58:07.737Z,7.80
2018-05-07T02:00:35.323Z,7.70
2018-05-07T02:03:02.929Z,7.80
2018-05-07T02:05:31.275Z,8.00
2018-05-07T02:07:58.880Z,8.00
2018-05-07T02:10:27.241Z,7.80
2018-05-07T02:12:54.858Z,7.80
2018-05-07T02:15:22.722Z,7.70
2018-05-07T02:17:50.311Z,7.70
2018-05-07T02:20:17.896Z,7.60
2018-05-07T02:22:45.523Z,7.60
2018-05-07T02:25:13.102Z,7.70
2018-05-07T02:27:40.737Z,7.80
2018-05-07T02:30:09.090Z,7.80
2018-05-07T02:32:36.699Z,7.80
2018-05-07T02:35:04.293Z,7.80
2018-05-07T02:37:31.910Z,7.70
2018-05-07T02:40:00.256Z,7.70
2018-05-07T02:42:27.836Z,7.70
2018-05-07T02:44:55.979Z,7.70
2018-05-07T02:47:23.563Z,7.80
2018-05-07T02:49:51.143Z,7.60
2018-05-07T02:52:18.775Z,7.50
2018-05-07T02:54:46.364Z,7.50
2018-05-07T02:57:13.954Z,7.50
2018-05-07T02:59:41.569Z,7.60
2018-05-07T03:02:09.177Z,7.60
2018-05-07T03:04:36.933Z,7.50
2018-05-07T03:07:04.473Z,7.20
2018-05-07T03:09:32.083Z,7.20
2018-05-07T03:11:59.723Z,7.10
2018-05-07T03:14:27.324Z,7.10
2018-05-07T03:16:55.696Z,7.00
2018-05-07T03:19:23.316Z,7.00
2018-05-07T03:21:50.921Z,7.10
2018-05-07T03:24:18.525Z,7.10
2018-05-07T03:26:46.155Z,7.10
2018-05-07T03:29:13.736Z,7.20
2018-05-07T03:31:42.328Z,7.10
2018-05-07T03:34:10.797Z,7.00
2018-05-07T03:36:38.407Z,7.00
2018-05-07T03:39:06.085Z,6.90
2018-05-07T03:41:33.721Z,6.80
2018-05-07T03:44:02.119Z,6.80
2018-05-07T03:46:29.747Z,6.80
2018-05-07T03:48:57.376Z,6.80
2018-05-07T03:51:25.007Z,6.80
2018-05-07T03:53:53.351Z,6.80
2018-05-07T03:56:20.991Z,6.80
2018-05-07T03:58:48.577Z,7.10
2018-05-07T04:01:16.205Z,7.20
2018-05-07T04:03:43.852Z,7.20
2018-05-07T04:06:12.243Z,7.30
2018-05-07T04:08:39.824Z,7.30
2018-05-07T04:11:07.445Z,7.30
2018-05-07T04:13:35.109Z,7.50
2018-05-07T04:16:02.676Z,7.60
2018-05-07T04:18:42.267Z,7.60
2018-05-07T04:21:16.496Z,7.70
2018-05-07T04:23:56.010Z,7.70
2018-05-07T04:26:23.659Z,7.70
2018-05-07T04:28:52.025Z,7.80
2018-05-07T04:31:20.457Z,7.90
2018-05-07T04:33:48.139Z,7.90
2018-05-07T04:36:15.728Z,8.00
2018-05-07T04:38:43.368Z,8.10
2018-05-07T04:41:10.991Z,8.30
2018-05-07T04:43:38.593Z,8.30
2018-05-07T04:46:06.224Z,8.40
2018-05-07T04:48:34.570Z,8.60
2018-05-07T04:51:02.213Z,8.60
2018-05-07T04:53:29.873Z,8.70
2018-05-07T04:55:57.495Z,8.80
2018-05-07T04:58:25.953Z,9.00
2018-05-07T05:00:53.564Z,9.00
2018-05-07T05:03:21.150Z,9.20
2018-05-07T05:05:48.790Z,9.40
2018-05-07T05:08:17.145Z,9.70
2018-05-07T05:10:44.807Z,9.70
2018-05-07T05:13:12.408Z,9.80
2018-05-07T05:15:40.756Z,10.20
2018-05-07T05:18:08.415Z,10.10
2018-05-07T05:20:36.000Z,10.40
2018-05-07T05:23:04.450Z,10.60
2018-05-07T05:25:32.043Z,10.60
2018-05-07T05:27:59.637Z,10.70
2018-05-07T05:30:27.286Z,10.90
2018-05-07T05:32:55.707Z,11.10
2018-05-07T05:35:23.320Z,11.10
2018-05-07T05:37:50.987Z,11.30
2018-05-07T05:40:19.295Z,11.50
2018-05-07T05:42:46.900Z,11.60
2018-05-07T05:45:14.550Z,11.80
2018-05-07T05:47:42.204Z,12.00
2018-05-07T05:50:09.949Z,12.10
2018-05-07T05:52:37.508Z,12.30
2018-05-07T05:55:05.964Z,12.40
2018-05-07T05:57:33.555Z,12.40
2018-05-07T06:00:01.194Z,12.60
2018-05-07T06:02:28.821Z,12.80
2018-05-07T06:04:56.474Z,12.90
2018-05-07T06:07:24.879Z,13.20
2018-05-07T06:09:52.481Z,13.20
2018-05-07T06:12:20.126Z,13.40
2018-05-07T06:14:47.793Z,13.60
2018-05-07T06:17:15.423Z,13.70
2018-05-07T06:19:43.796Z,13.90
2018-05-07T06:22:11.488Z,13.90
2018-05-07T06:24:39.136Z,14.10
2018-05-07T06:27:07.552Z,14.60
2018-05-07T06:29:35.222Z,14.60
2018-05-07T06:32:02.836Z,14.60
2018-05-07T06:34:30.442Z,14.60
2018-05-07T06:36:58.093Z,14.70
2018-05-07T06:39:26.514Z,15.00
2018-05-07T06:41:54.115Z,15.00
2018-05-07T06:44:21.794Z,15.20
2018-05-07T06:46:49.443Z,15.40
2018-05-07T06:49:17.828Z,15.70
2018-05-07T06:51:45.493Z,15.70
2018-05-07T06:54:13.143Z,15.90
2018-05-07T06:56:40.764Z,16.00
2018-05-07T06:59:08.404Z,16.20
2018-05-07T07:01:36.035Z,16.60
2018-05-07T07:04:03.679Z,16.70
2018-05-07T07:06:31.336Z,17.00
2018-05-07T07:08:59.755Z,18.00
2018-05-07T07:11:27.373Z,17.90
2018-05-07T07:13:55.798Z,18.50
2018-05-07T07:16:23.461Z,18.50
2018-05-07T07:18:51.071Z,18.60
2018-05-07T07:21:18.710Z,18.90
2018-05-07T07:23:46.438Z,19.30
2018-05-07T07:26:14.107Z,19.40
2018-05-07T07:28:41.705Z,19.60
2018-05-07T07:31:09.336Z,19.70
2018-05-07T07:33:37.923Z,20.40
2018-05-07T07:36:05.625Z,20.30
2018-05-07T07:38:33.283Z,20.30
2018-05-07T07:41:00.941Z,20.00
2018-05-07T07:43:28.552Z,20.50
2018-05-07T07:45:56.156Z,21.00
2018-05-07T07:48:24.551Z,20.70
2018-05-07T07:50:52.197Z,20.70
2018-05-07T07:53:20.613Z,21.30
2018-05-07T07:55:48.992Z,21.80
2018-05-07T07:58:16.632Z,21.80
2018-05-07T08:00:45.356Z,22.10
2018-05-07T08:03:13.012Z,22.00
2018-05-07T08:05:40.709Z,22.10
2018-05-07T08:08:08.318Z,22.40
2018-05-07T08:10:36.772Z,22.40
2018-05-07T08:13:04.394Z,22.40
2018-05-07T08:15:32.036Z,22.60
2018-05-07T08:18:00.406Z,22.70
2018-05-07T08:20:28.072Z,22.70
2018-05-07T08:22:55.698Z,22.80
2018-05-07T08:25:23.323Z,22.90
2018-05-07T08:27:51.712Z,23.60
2018-05-07T08:30:20.197Z,23.40
2018-05-07T08:32:48.085Z,23.40
2018-05-07T08:35:15.739Z,23.50
2018-05-07T08:37:44.103Z,23.50
2018-05-07T08:40:12.494Z,24.10
2018-05-07T08:42:40.888Z,24.80
2018-05-07T08:45:09.301Z,24.70
2018-05-07T08:47:36.901Z,24.70
2018-05-07T08:50:04.551Z,23.90
2018-05-07T08:52:32.162Z,24.30
2018-05-07T08:55:00.565Z,24.30
2018-05-07T08:57:28.280Z,24.30
2018-05-07T08:59:55.932Z,24.20
2018-05-07T09:02:23.546Z,24.50
2018-05-07T09:04:51.957Z,24.40
2018-05-07T09:07:19.598Z,24.40
2018-05-07T09:09:48.037Z,23.60
2018-05-07T09:12:15.657Z,23.50
2018-05-07T09:14:44.056Z,24.70
2018-05-07T09:17:11.691Z,24.70
2018-05-07T09:19:40.122Z,25.50
2018-05-07T09:22:07.846Z,25.50
2018-05-07T09:24:36.276Z,26.40
2018-05-07T09:27:03.933Z,26.30
2018-05-07T09:29:32.299Z,25.90
2018-05-07T09:32:00.690Z,26.00
2018-05-07T09:34:28.335Z,26.00
2018-05-07T09:36:56.796Z,26.10
2018-05-07T09:39:24.408Z,26.10
2018-05-07T09:41:52.060Z,25.90
2018-05-07T09:44:20.431Z,25.80
2018-05-07T09:46:48.835Z,26.00
2018-05-07T09:49:16.475Z,25.90
2018-05-07T09:51:44.865Z,25.50
2018-05-07T09:54:13.293Z,25.50
2018-05-07T09:56:52.852Z,26.00
2018-05-07T09:59:21.210Z,26.10
2018-05-07T10:01:48.835Z,26.10
2018-05-07T10:04:16.419Z,26.70
2018-05-07T10:06:44.810Z,25.60
2018-05-07T10:09:12.416Z,25.60
2018-05-07T10:11:40.076Z,26.00
2018-05-07T10:14:07.668Z,26.10
2018-05-07T10:16:35.322Z,26.40
2018-05-07T10:19:02.986Z,26.50
2018-05-07T10:21:30.859Z,26.80
2018-05-07T10:23:58.455Z,26.20
2018-05-07T10:26:26.072Z,26.10
2018-05-07T10:28:53.750Z,26.00
2018-05-07T10:31:22.338Z,27.10
2018-05-07T10:33:50.006Z,26.90
2018-05-07T10:36:17.673Z,26.40
2018-05-07T10:38:45.304Z,27.00
2018-05-07T10:41:13.105Z,27.20
2018-05-07T10:43:40.708Z,27.40
2018-05-07T10:46:09.083Z,27.30
2018-05-07T10:48:37.516Z,27.40
2018-05-07T10:51:05.121Z,27.30
2018-05-07T10:53:32.743Z,26.80
2018-05-07T10:56:00.399Z,26.90
2018-05-07T10:58:28.040Z,26.50
2018-05-07T11:00:55.642Z,27.20
2018-05-07T11:03:23.293Z,27.80
2018-05-07T11:05:50.951Z,28.30
2018-05-07T11:08:19.324Z,27.50
2018-05-07T11:10:47.760Z,28.30
2018-05-07T11:13:15.351Z,28.30
2018-05-07T11:15:43.000Z,28.50
2018-05-07T11:18:10.642Z,28.10
2018-05-07T11:20:38.270Z,28.00
2018-05-07T11:23:06.713Z,28.40
2018-05-07T11:25:34.358Z,28.40
2018-05-07T11:28:02.343Z,28.10
2018-05-07T11:30:29.956Z,28.20
2018-05-07T11:32:57.568Z,27.80
2018-05-07T11:35:25.245Z,28.20
2018-05-07T11:37:52.905Z,28.60
2018-05-07T11:40:20.597Z,28.40
2018-05-07T11:42:48.240Z,28.80
2018-05-07T11:45:15.908Z,28.20
2018-05-07T11:47:43.552Z,28.30
2018-05-07T11:50:11.941Z,28.30
2018-05-07T11:52:39.594Z,28.30
2018-05-07T11:55:08.031Z,27.90
2018-05-07T11:57:35.686Z,28.00
2018-05-07T12:00:03.340Z,28.70
2018-05-07T12:02:31.054Z,28.90
2018-05-07T12:04:58.667Z,28.90
2018-05-07T12:07:26.306Z,28.90
2018-05-07T12:09:55.053Z,29.20
2018-05-07T12:12:22.665Z,29.10
2018-05-07T12:14:50.402Z,29.30
2018-05-07T12:17:18.121Z,29.10
2018-05-07T12:19:45.728Z,27.70
2018-05-07T12:22:13.383Z,28.40
2018-05-07T12:24:41.022Z,28.70
2018-05-07T12:27:09.468Z,29.30
2018-05-07T12:29:37.880Z,29.30
2018-05-07T12:32:06.357Z,29.20
2018-05-07T12:34:34.794Z,28.90
2018-05-07T12:37:02.397Z,28.80
2018-05-07T12:39:29.998Z,29.30
2018-05-07T12:41:57.694Z,28.90
2018-05-07T12:44:25.648Z,29.00
2018-05-07T12:46:53.354Z,28.90
2018-05-07T12:49:21.021Z,28.50
2018-05-07T12:51:48.665Z,27.50
2018-05-07T12:54:16.319Z,28.30
2018-05-07T12:56:43.940Z,28.70
2018-05-07T12:59:12.442Z,29.30
2018-05-07T13:01:40.058Z,29.20
2018-05-07T13:04:07.700Z,29.00
2018-05-07T13:06:35.349Z,28.50
2018-05-07T13:09:03.054Z,28.90
2018-05-07T13:11:30.699Z,28.90
2018-05-07T13:13:58.347Z,29.10
2018-05-07T13:16:26.798Z,29.60
2018-05-07T13:18:55.202Z,28.80
2018-05-07T13:21:23.623Z,29.10
2018-05-07T13:23:51.251Z,29.10
2018-05-07T13:26:19.633Z,29.50
2018-05-07T13:28:47.283Z,29.50
2018-05-07T13:31:14.935Z,29.40
2018-05-07T13:33:42.535Z,29.70
2018-05-07T13:36:10.951Z,29.70
2018-05-07T13:38:38.620Z,29.60
2018-05-07T13:41:06.274Z,29.40
2018-05-07T13:43:34.685Z,29.70
2018-05-07T13:46:03.202Z,29.70
2018-05-07T13:48:30.886Z,29.70
2018-05-07T13:50:58.488Z,29.20
2018-05-07T13:53:26.150Z,29.00
2018-05-07T13:55:53.805Z,28.70
2018-05-07T13:58:21.459Z,29.50
2018-05-07T14:00:49.132Z,29.70
2018-05-07T14:03:16.770Z,30.10
2018-05-07T14:05:44.444Z,29.80
2018-05-07T14:08:12.884Z,29.70
2018-05-07T14:10:40.544Z,29.70
2018-05-07T14:13:08.156Z,29.90
2018-05-07T14:15:36.535Z,29.50
2018-05-07T14:18:04.998Z,30.10
2018-05-07T14:20:32.641Z,30.10
2018-05-07T14:23:00.313Z,30.00
2018-05-07T14:25:28.761Z,29.50
2018-05-07T14:27:56.449Z,29.50
2018-05-07T14:30:24.087Z,29.60
2018-05-07T14:32:52.085Z,29.60
2018-05-07T14:35:19.762Z,29.50
2018-05-07T14:37:47.375Z,29.90
2018-05-07T14:40:15.024Z,29.60
2018-05-07T14:42:42.620Z,29.50
2018-05-07T14:45:10.991Z,29.70
2018-05-07T14:47:38.649Z,29.70
2018-05-07T14:50:07.288Z,29.30
2018-05-07T14:52:34.988Z,28.70
2018-05-07T14:55:02.649Z,28.40
2018-05-07T14:57:30.258Z,29.10
2018-05-07T14:59:57.934Z,29.50
2018-05-07T15:02:25.602Z,29.70
2018-05-07T15:04:53.235Z,29.30
2018-05-07T15:07:20.845Z,29.30
2018-05-07T15:09:48.499Z,28.70
2018-05-07T15:12:16.935Z,28.70
2018-05-07T15:14:44.568Z,28.60
2018-05-07T15:17:12.216Z,28.50
2018-05-07T15:19:40.588Z,27.90
2018-05-07T15:22:09.022Z,27.80
2018-05-07T15:24:46.632Z,27.80
2018-05-07T15:27:14.251Z,27.40
2018-05-07T15:29:41.896Z,27.30
2018-05-07T15:32:10.425Z,26.90
2018-05-07T15:34:38.810Z,26.70
2018-05-07T15:37:06.516Z,26.70
2018-05-07T15:39:34.209Z,26.70
2018-05-07T15:42:02.620Z,25.70
2018-05-07T15:44:30.238Z,25.70
2018-05-07T15:46:57.899Z,25.80
2018-05-07T15:49:25.586Z,25.30
2018-05-07T15:51:53.191Z,25.50
2018-05-07T15:54:20.839Z,25.50
2018-05-07T15:56:48.497Z,25.30
2018-05-07T15:59:16.940Z,25.00
2018-05-07T16:01:44.575Z,25.00
2018-05-07T16:04:12.217Z,25.10
2018-05-07T16:06:39.883Z,24.90
2018-05-07T16:09:07.498Z,24.90
2018-05-07T16:11:35.137Z,24.90
2018-05-07T16:14:02.994Z,24.50
2018-05-07T16:16:31.465Z,24.70
2018-05-07T16:18:59.903Z,24.20
2018-05-07T16:21:27.782Z,24.20
2018-05-07T16:23:55.232Z,24.30
2018-05-07T16:26:22.877Z,24.40
2018-05-07T16:28:50.677Z,24.10
2018-05-07T16:31:18.369Z,23.90
2018-05-07T16:33:45.929Z,23.80
2018-05-07T16:36:13.589Z,23.80
2018-05-07T16:38:41.249Z,23.50
2018-05-07T16:41:09.219Z,23.60
2018-05-07T16:43:36.821Z,23.50
2018-05-07T16:46:05.269Z,23.40
2018-05-07T16:48:32.994Z,23.40
2018-05-07T16:51:00.642Z,23.30
2018-05-07T16:53:28.990Z,23.10
2018-05-07T16:55:56.632Z,23.10
2018-05-07T16:58:24.231Z,23.20
2018-05-07T17:00:51.859Z,23.20
2018-05-07T17:03:19.529Z,23.00
2018-05-07T17:05:47.117Z,23.00
2018-05-07T17:08:14.763Z,22.90
2018-05-07T17:10:43.130Z,22.80
2018-05-07T17:13:10.788Z,22.80
2018-05-07T17:15:39.143Z,22.50
2018-05-07T17:18:06.786Z,22.50
2018-05-07T17:20:34.384Z,22.50
2018-05-07T17:23:01.972Z,22.50
2018-05-07T17:25:30.387Z,22.50
2018-05-07T17:27:57.980Z,22.50
2018-05-07T17:30:25.598Z,22.40
2018-05-07T17:32:53.834Z,22.40
2018-05-07T17:35:21.464Z,22.30
2018-05-07T17:37:49.093Z,22.20
2018-05-07T17:40:17.447Z,22.00
2018-05-07T17:42:45.076Z,22.00
2018-05-07T17:45:25.242Z,21.90
2018-05-07T17:48:04.755Z,21.80
2018-05-07T17:50:32.355Z,21.80
2018-05-07T17:53:00.273Z,21.60
2018-05-07T17:55:28.643Z,21.40
2018-05-07T17:57:56.240Z,21.30
2018-05-07T18:00:24.108Z,21.30
2018-05-07T18:02:51.703Z,21.10
2018-05-07T18:05:19.295Z,21.00
2018-05-07T18:07:46.920Z,20.90
2018-05-07T18:10:14.555Z,20.90
2018-05-07T18:12:42.164Z,20.70
2018-05-07T18:15:09.766Z,20.50
2018-05-07T18:17:37.444Z,20.40
2018-05-07T18:20:05.168Z,20.30
2018-05-07T18:22:32.823Z,20.20
2018-05-07T18:25:00.436Z,20.00
2018-05-07T18:27:28.030Z,19.90
2018-05-07T18:29:56.817Z,19.70
2018-05-07T18:32:25.314Z,19.60
2018-05-07T18:34:52.877Z,19.50
2018-05-07T18:37:20.580Z,19.40
2018-05-07T18:39:48.269Z,19.30
2018-05-07T18:42:15.907Z,19.20
2018-05-07T18:44:43.584Z,18.90
2018-05-07T18:47:11.196Z,18.70
2018-05-07T18:49:39.569Z,18.20
2018-05-07T18:52:07.237Z,18.20
2018-05-07T18:54:35.656Z,17.80
2018-05-07T18:57:03.249Z,17.80
2018-05-07T18:59:30.831Z,17.70
2018-05-07T19:01:58.471Z,17.40
2018-05-07T19:04:26.833Z,17.20
2018-05-07T19:06:55.252Z,17.10
2018-05-07T19:09:22.855Z,17.20
2018-05-07T19:11:51.658Z,17.10
2018-05-07T19:14:20.295Z,16.90
2018-05-07T19:16:48.107Z,16.90
2018-05-07T19:19:15.768Z,16.80
2018-05-07T19:21:43.356Z,16.70
2018-05-07T19:24:10.947Z,16.60
2018-05-07T19:26:39.352Z,16.40
2018-05-07T19:29:06.952Z,16.30
2018-05-07T19:31:34.649Z,16.30
2018-05-07T19:34:03.011Z,16.10
2018-05-07T19:36:30.595Z,16.00
2018-05-07T19:38:58.994Z,15.90
2018-05-07T19:41:27.397Z,15.90
2018-05-07T19:43:55.008Z,15.80
2018-05-07T19:46:22.596Z,15.80
2018-05-07T19:48:50.980Z,15.60
2018-05-07T19:51:19.508Z,15.50
2018-05-07T19:53:47.146Z,15.50
2018-05-07T19:56:14.884Z,15.40
2018-05-07T19:58:42.655Z,15.30
2018-05-07T20:01:10.296Z,15.20
2018-05-07T20:03:38.306Z,15.20
2018-05-07T20:06:06.017Z,15.00
2018-05-07T20:08:33.714Z,14.90
2018-05-07T20:11:01.776Z,14.80
2018-05-07T20:13:29.419Z,14.70
2018-05-07T20:15:57.348Z,14.70
2018-05-07T20:18:24.955Z,14.60
2018-05-07T20:20:52.587Z,14.50
2018-05-07T20:23:21.019Z,14.40
2018-05-07T20:25:48.645Z,14.40
2018-05-07T20:28:17.031Z,14.40
2018-05-07T20:30:45.443Z,14.40
2018-05-07T20:33:13.179Z,14.40
2018-05-07T20:35:40.761Z,14.40
2018-05-07T20:38:09.181Z,14.40
2018-05-07T20:40:36.829Z,14.40
2018-05-07T20:43:04.419Z,14.30
2018-05-07T20:45:32.045Z,14.20
2018-05-07T20:48:00.486Z,14.10
2018-05-07T20:50:28.072Z,14.10
2018-05-07T20:52:56.491Z,13.80
2018-05-07T20:55:24.133Z,13.80
2018-05-07T20:57:52.519Z,13.60
2018-05-07T21:00:20.923Z,13.50
2018-05-07T21:02:48.579Z,13.50
2018-05-07T21:05:16.953Z,13.40
2018-05-07T21:07:45.327Z,13.30
2018-05-07T21:10:12.984Z,13.30
2018-05-07T21:12:40.624Z,13.30
2018-05-07T21:15:08.237Z,13.30
2018-05-07T21:17:36.602Z,13.20
2018-05-07T21:20:04.276Z,13.20
2018-05-07T21:22:31.865Z,13.20
2018-05-07T21:25:00.261Z,13.10
2018-05-07T21:27:27.896Z,13.10
2018-05-07T21:29:55.535Z,13.20
2018-05-07T21:32:23.159Z,13.20
2018-05-07T21:34:50.767Z,13.10
2018-05-07T21:37:18.565Z,13.00
2018-05-07T21:39:46.932Z,13.00
2018-05-07T21:42:14.523Z,13.00
2018-05-07T21:44:42.178Z,13.00
2018-05-07T21:47:10.457Z,13.00
2018-05-07T21:49:38.599Z,12.90
2018-05-07T21:52:06.253Z,12.90
2018-05-07T21:54:34.554Z,12.80
2018-05-07T21:57:02.179Z,12.70
2018-05-07T21:59:29.792Z,12.60
2018-05-07T22:01:58.164Z,12.50
2018-05-07T22:04:25.840Z,12.40
2018-05-07T22:06:53.489Z,12.30
2018-05-07T22:09:21.104Z,12.20
2018-05-07T22:11:49.409Z,12.10
2018-05-07T22:14:17.039Z,12.20
2018-05-07T22:16:44.643Z,12.10
2018-05-07T22:19:12.283Z,12.10
2018-05-07T22:21:39.923Z,12.00
2018-05-07T22:24:07.574Z,12.00
2018-05-07T22:26:35.210Z,12.00
2018-05-07T22:29:02.860Z,11.90
2018-05-07T22:31:30.539Z,11.90
2018-05-07T22:33:58.534Z,11.90
2018-05-07T22:36:26.157Z,11.90
2018-05-07T22:38:53.766Z,11.90
2018-05-07T22:41:21.413Z,11.80
2018-05-07T22:43:49.014Z,11.90
2018-05-07T22:46:16.741Z,11.80
2018-05-07T22:48:44.321Z,11.70
2018-05-07T22:51:11.976Z,11.70
2018-05-07T22:53:39.622Z,11.70
2018-05-07T22:56:08.065Z,11.50
2018-05-07T22:58:35.727Z,11.50
2018-05-07T23:01:03.375Z,11.50
2018-05-07T23:03:31.026Z,11.50
2018-05-07T23:05:58.651Z,11.50
2018-05-07T23:08:26.275Z,11.30
2018-05-07T23:10:54.622Z,11.30
2018-05-07T23:13:22.288Z,11.20
2018-05-07T23:15:50.678Z,11.20
2018-05-07T23:18:19.060Z,11.20
2018-05-07T23:20:47.468Z,11.10
2018-05-07T23:23:15.085Z,11.00
2018-05-07T23:25:42.746Z,11.10
2018-05-07T23:28:10.375Z,11.00
2018-05-07T23:30:38.003Z,10.90
2018-05-07T23:33:05.640Z,10.80
2018-05-07T23:35:33.276Z,10.80
2018-05-07T23:38:00.892Z,10.70
2018-05-07T23:40:28.534Z,10.70
2018-05-07T23:42:56.149Z,10.70
2018-05-07T23:45:24.562Z,10.60
2018-05-07T23:47:52.179Z,10.60
2018-05-07T23:50:20.569Z,10.60
2018-05-07T23:52:49.028Z,10.50
2018-05-07T23:55:16.620Z,10.50
2018-05-07T23:57:44.257Z,10.60
